createdAt,value
2019-02-12T00:00:18.599Z,61.69
2019-02-12T00:02:47.270Z,61.82
2019-02-12T00:05:15.915Z,61.73
2019-02-12T00:07:44.488Z,62.11
2019-02-12T00:10:13.077Z,61.97
2019-02-12T00:12:41.713Z,61.90
2019-02-12T00:15:10.370Z,61.78
2019-02-12T00:17:39.024Z,62.12
2019-02-12T00:20:08.496Z,61.82
2019-02-12T00:22:37.159Z,62.29
2019-02-12T00:25:07.799Z,62.33
2019-02-12T00:27:36.452Z,62.43
2019-02-12T00:30:08.096Z,62.19
2019-02-12T00:32:36.678Z,62.16
2019-02-12T00:35:06.449Z,62.25
2019-02-12T00:37:35.231Z,62.29
2019-02-12T00:40:03.861Z,62.40
2019-02-12T00:42:32.595Z,62.28
2019-02-12T00:45:01.254Z,61.95
2019-02-12T00:47:29.828Z,61.90
2019-02-12T00:49:58.528Z,62.17
2019-02-12T00:52:27.167Z,62.07
2019-02-12T00:54:55.930Z,62.08
2019-02-12T00:57:24.568Z,62.00
2019-02-12T00:59:53.297Z,62.19
2019-02-12T01:02:21.945Z,62.27
2019-02-12T01:04:50.618Z,62.31
2019-02-12T01:07:19.193Z,62.29
2019-02-12T01:09:47.856Z,62.25
2019-02-12T01:12:16.634Z,62.20
2019-02-12T01:14:45.300Z,62.78
2019-02-12T01:17:14.001Z,62.13
2019-02-12T01:19:42.669Z,62.46
2019-02-12T01:22:11.315Z,62.53
2019-02-12T01:24:39.978Z,62.31
2019-02-12T01:27:08.649Z,62.10
2019-02-12T01:29:37.427Z,62.20
2019-02-12T01:32:06.083Z,62.26
2019-02-12T01:34:34.731Z,62.26
2019-02-12T01:37:03.381Z,62.26
2019-02-12T01:39:32.043Z,62.74
2019-02-12T01:42:00.691Z,62.56
2019-02-12T01:44:29.281Z,62.48
2019-02-12T01:46:57.922Z,62.52
2019-02-12T01:49:26.588Z,62.57
2019-02-12T01:51:55.234Z,62.79
2019-02-12T01:54:23.901Z,62.57
2019-02-12T01:56:52.533Z,62.40
2019-02-12T01:59:21.190Z,62.74
2019-02-12T02:01:49.775Z,62.71
2019-02-12T02:04:18.513Z,62.61
2019-02-12T02:06:47.150Z,62.47
2019-02-12T02:09:15.885Z,62.76
2019-02-12T02:11:44.687Z,62.33
2019-02-12T02:14:13.361Z,62.40
2019-02-12T02:16:41.931Z,62.47
2019-02-12T02:19:10.587Z,62.69
2019-02-12T02:21:44.067Z,62.62
2019-02-12T02:24:09.625Z,62.93
2019-02-12T02:26:38.224Z,63.29
2019-02-12T02:29:06.823Z,63.31
2019-02-12T02:31:35.473Z,62.97
2019-02-12T02:34:04.122Z,62.89
2019-02-12T02:36:32.779Z,63.04
2019-02-12T02:39:01.363Z,63.22
2019-02-12T02:41:30.040Z,63.09
2019-02-12T02:43:58.686Z,63.24
2019-02-12T02:46:27.335Z,63.23
2019-02-12T02:48:56.011Z,63.42
2019-02-12T02:51:24.774Z,63.42
2019-02-12T02:53:53.443Z,63.61
2019-02-12T02:56:22.181Z,63.29
2019-02-12T02:58:50.880Z,62.97
2019-02-12T03:01:19.530Z,63.22
2019-02-12T03:03:48.216Z,63.54
2019-02-12T03:06:16.876Z,63.73
2019-02-12T03:08:45.522Z,63.32
2019-02-12T03:11:14.184Z,63.29
2019-02-12T03:13:42.949Z,64.18
2019-02-12T03:16:11.592Z,63.74
2019-02-12T03:18:40.240Z,63.54
2019-02-12T03:21:08.891Z,63.58
2019-02-12T03:23:37.552Z,63.54
2019-02-12T03:26:06.413Z,64.17
2019-02-12T03:28:35.123Z,64.08
2019-02-12T03:31:03.849Z,63.92
2019-02-12T03:33:32.535Z,64.09
2019-02-12T03:36:01.158Z,64.61
2019-02-12T03:38:29.823Z,64.17
2019-02-12T03:40:58.463Z,64.18
2019-02-12T03:43:27.175Z,64.14
2019-02-12T03:45:55.824Z,64.38
2019-02-12T03:48:24.552Z,64.25
2019-02-12T03:50:53.210Z,64.28
2019-02-12T03:53:22.258Z,64.19
2019-02-12T03:55:50.920Z,64.24
2019-02-12T03:58:19.629Z,64.81
2019-02-12T04:00:48.285Z,64.23
2019-02-12T04:03:16.927Z,63.85
2019-02-12T04:05:45.664Z,63.99
2019-02-12T04:08:14.337Z,64.25
2019-02-12T04:10:42.972Z,64.09
2019-02-12T04:13:11.569Z,64.12
2019-02-12T04:15:40.207Z,64.27
2019-02-12T04:18:08.880Z,64.92
2019-02-12T04:20:37.535Z,65.31
2019-02-12T04:23:06.146Z,66.56
2019-02-12T04:25:34.726Z,65.64
2019-02-12T04:28:03.316Z,65.08
2019-02-12T04:30:31.946Z,64.93
2019-02-12T04:33:00.522Z,65.03
2019-02-12T04:35:29.281Z,65.06
2019-02-12T04:37:57.939Z,65.42
2019-02-12T04:40:26.639Z,65.07
2019-02-12T04:42:55.333Z,65.18
2019-02-12T04:45:23.987Z,64.78
2019-02-12T04:47:52.654Z,64.58
2019-02-12T04:50:21.284Z,64.74
2019-02-12T04:52:49.930Z,64.63
2019-02-12T04:55:18.586Z,64.97
2019-02-12T04:57:47.198Z,64.83
2019-02-12T05:00:17.810Z,64.58
2019-02-12T05:02:46.432Z,66.24
2019-02-12T05:05:15.145Z,66.15
2019-02-12T05:07:43.812Z,65.25
2019-02-12T05:10:21.421Z,65.28
2019-02-12T05:12:50.080Z,64.67
2019-02-12T05:15:18.655Z,64.84
2019-02-12T05:17:47.322Z,67.46
2019-02-12T05:20:15.981Z,66.68
2019-02-12T05:22:44.762Z,65.72
2019-02-12T05:25:14.009Z,66.05
2019-02-12T05:27:42.580Z,74.82
2019-02-12T05:30:14.645Z,70.57
2019-02-12T05:32:43.304Z,69.08
2019-02-12T05:35:11.956Z,68.60
2019-02-12T05:37:40.604Z,68.04
2019-02-12T05:40:10.980Z,66.93
2019-02-12T05:42:39.618Z,66.42
2019-02-12T05:45:10.801Z,66.06
2019-02-12T05:47:42.612Z,66.23
2019-02-12T05:50:15.407Z,66.37
2019-02-12T05:52:53.348Z,65.79
2019-02-12T05:55:14.359Z,66.06
2019-02-12T05:57:43.022Z,65.96
2019-02-12T06:00:18.124Z,65.83
2019-02-12T06:02:46.707Z,65.70
2019-02-12T06:05:18.481Z,66.02
2019-02-12T06:07:47.399Z,65.54
2019-02-12T06:10:16.098Z,65.74
2019-02-12T06:12:45.092Z,65.78
2019-02-12T06:15:13.735Z,65.66
2019-02-12T06:17:43.821Z,65.29
2019-02-12T06:20:12.477Z,65.54
2019-02-12T06:22:41.169Z,65.39
2019-02-12T06:25:09.915Z,65.62
2019-02-12T06:27:38.578Z,65.63
2019-02-12T06:30:09.793Z,68.30
2019-02-12T06:32:38.320Z,68.64
2019-02-12T06:35:08.782Z,68.09
2019-02-12T06:37:37.376Z,67.30
2019-02-12T06:40:10.616Z,67.95
2019-02-12T06:42:39.276Z,67.11
2019-02-12T06:45:13.462Z,66.45
2019-02-12T06:47:42.056Z,66.57
2019-02-12T06:50:11.903Z,66.26
2019-02-12T06:52:40.555Z,66.53
2019-02-12T06:55:10.207Z,66.43
2019-02-12T06:57:39.380Z,66.32
2019-02-12T07:00:10.501Z,66.22
2019-02-12T07:03:12.318Z,66.13
2019-02-12T07:05:55.811Z,66.56
2019-02-12T07:08:30.352Z,66.87
2019-02-12T07:11:23.197Z,67.37
2019-02-12T07:14:03.969Z,66.91
2019-02-12T07:16:35.737Z,66.95
2019-02-12T07:19:26.918Z,66.37
2019-02-12T07:22:12.414Z,66.60
2019-02-12T07:25:00.372Z,67.12
2019-02-12T07:27:47.110Z,66.66
2019-02-12T07:30:24.370Z,66.66
2019-02-12T07:33:13.533Z,66.95
2019-02-12T07:36:09.415Z,67.69
2019-02-12T07:38:52.838Z,67.43
2019-02-12T07:41:42.771Z,66.53
2019-02-12T07:44:14.565Z,66.38
2019-02-12T07:46:52.379Z,66.64
2019-02-12T07:49:27.133Z,66.09
2019-02-12T07:52:07.523Z,66.54
2019-02-12T07:54:48.453Z,66.31
2019-02-12T07:57:31.834Z,66.34
2019-02-12T08:00:21.055Z,65.87
2019-02-12T08:02:58.545Z,66.23
2019-02-12T08:05:32.889Z,66.77
2019-02-12T08:08:28.694Z,66.45
2019-02-12T08:11:03.001Z,66.38
2019-02-12T08:13:34.813Z,66.04
2019-02-12T08:16:41.159Z,67.52
2019-02-12T08:19:21.925Z,66.36
2019-02-12T08:22:26.643Z,66.22
2019-02-12T08:25:01.055Z,66.47
2019-02-12T08:27:41.550Z,66.27
2019-02-12T08:30:30.996Z,66.77
2019-02-12T08:33:34.295Z,67.20
2019-02-12T08:36:21.040Z,66.49
2019-02-12T08:39:04.777Z,67.21
2019-02-12T08:41:36.592Z,66.42
2019-02-12T08:44:23.387Z,66.00
2019-02-12T08:47:16.164Z,66.12
2019-02-12T08:49:47.892Z,66.93
2019-02-12T08:52:19.643Z,66.10
2019-02-12T08:55:16.928Z,66.91
2019-02-12T08:57:57.365Z,66.44
2019-02-12T09:00:40.825Z,67.44
2019-02-12T09:03:35.122Z,68.30
2019-02-12T09:06:21.735Z,67.81
2019-02-12T09:09:15.854Z,67.63
2019-02-12T09:12:20.765Z,67.66
2019-02-12T09:14:58.151Z,67.19
2019-02-12T09:17:40.166Z,66.82
2019-02-12T09:20:17.827Z,66.97
2019-02-12T09:22:58.515Z,67.01
2019-02-12T09:25:35.629Z,67.17
2019-02-12T09:28:13.463Z,68.61
2019-02-12T09:31:13.753Z,67.58
2019-02-12T09:33:45.546Z,67.05
2019-02-12T09:36:23.124Z,67.38
2019-02-12T09:39:06.469Z,67.37
2019-02-12T09:41:54.819Z,67.80
2019-02-12T09:44:53.677Z,67.41
2019-02-12T09:47:31.102Z,67.38
2019-02-12T09:50:11.445Z,67.66
2019-02-12T09:52:46.128Z,67.37
2019-02-12T09:55:20.818Z,67.42
2019-02-12T09:58:10.261Z,66.99
2019-02-12T10:00:48.095Z,68.28
2019-02-12T10:03:25.435Z,68.97
2019-02-12T10:06:03.209Z,68.01
2019-02-12T10:08:54.376Z,68.01
2019-02-12T10:11:44.099Z,69.16
2019-02-12T10:14:24.419Z,68.57
2019-02-12T10:16:59.159Z,67.87
2019-02-12T10:19:36.511Z,67.79
2019-02-12T10:22:08.337Z,68.11
2019-02-12T10:24:43.005Z,67.90
2019-02-12T10:27:32.528Z,68.14
2019-02-12T10:30:23.328Z,68.95
2019-02-12T10:32:51.977Z,68.54
2019-02-12T10:35:20.623Z,67.92
2019-02-12T10:37:49.240Z,67.68
2019-02-12T10:40:17.899Z,68.43
2019-02-12T10:42:46.644Z,69.02
2019-02-12T10:45:15.300Z,69.44
2019-02-12T10:47:44.321Z,69.10
2019-02-12T10:50:12.982Z,69.04
2019-02-12T10:52:41.714Z,69.84
2019-02-12T10:55:10.407Z,69.05
2019-02-12T10:57:39.033Z,68.78
2019-02-12T11:00:14.715Z,68.50
2019-02-12T11:02:43.383Z,67.73
2019-02-12T11:05:12.029Z,68.76
2019-02-12T11:07:40.606Z,67.87
2019-02-12T11:10:09.770Z,68.31
2019-02-12T11:12:38.427Z,68.10
2019-02-12T11:15:08.916Z,68.86
2019-02-12T11:17:37.663Z,68.58
2019-02-12T11:20:08.807Z,68.37
2019-02-12T11:22:37.391Z,68.99
2019-02-12T11:25:08.169Z,68.47
2019-02-12T11:27:36.818Z,68.59
2019-02-12T11:30:11.641Z,69.20
2019-02-12T11:32:40.313Z,69.04
2019-02-12T11:35:11.733Z,68.46
2019-02-12T11:37:40.324Z,69.86
2019-02-12T11:40:11.147Z,68.98
2019-02-12T11:42:39.786Z,69.80
2019-02-12T11:45:14.756Z,69.21
2019-02-12T11:47:43.501Z,68.74
2019-02-12T11:50:12.138Z,68.35
2019-02-12T11:52:40.773Z,70.04
2019-02-12T11:55:11.641Z,68.48
2019-02-12T11:57:40.326Z,69.27
2019-02-12T12:00:11.784Z,68.89
2019-02-12T12:02:41.971Z,69.51
2019-02-12T12:05:10.958Z,69.68
2019-02-12T12:07:39.602Z,69.39
2019-02-12T12:10:11.510Z,70.85
2019-02-12T12:12:40.089Z,69.94
2019-02-12T12:15:10.747Z,69.16
2019-02-12T12:17:39.505Z,69.71
2019-02-12T12:20:10.711Z,70.27
2019-02-12T12:22:39.370Z,70.26
2019-02-12T12:25:09.811Z,70.21
2019-02-12T12:27:38.473Z,69.60
2019-02-12T12:30:12.587Z,70.17
2019-02-12T12:32:41.295Z,70.29
2019-02-12T12:35:11.152Z,68.99
2019-02-12T12:37:39.794Z,69.88
2019-02-12T12:40:14.606Z,69.05
2019-02-12T12:42:43.261Z,69.28
2019-02-12T12:45:14.313Z,71.33
2019-02-12T12:47:43.020Z,70.19
2019-02-12T12:50:12.671Z,70.55
2019-02-12T12:52:41.309Z,69.81
2019-02-12T12:55:10.469Z,69.48
2019-02-12T12:57:41.816Z,69.66
2019-02-12T13:00:14.701Z,69.29
2019-02-12T13:02:43.346Z,69.47
2019-02-12T13:05:12.083Z,70.94
2019-02-12T13:07:40.713Z,69.64
2019-02-12T13:10:12.633Z,70.62
2019-02-12T13:12:41.324Z,70.80
2019-02-12T13:15:11.881Z,70.27
2019-02-12T13:17:40.534Z,70.05
2019-02-12T13:20:14.498Z,70.50
2019-02-12T13:22:43.139Z,69.98
2019-02-12T13:25:11.893Z,70.88
2019-02-12T13:27:40.603Z,70.94
2019-02-12T13:30:19.057Z,70.81
2019-02-12T13:32:47.625Z,71.01
2019-02-12T13:35:16.296Z,69.91
2019-02-12T13:37:44.963Z,70.60
2019-02-12T13:40:14.271Z,70.23
2019-02-12T13:42:42.919Z,70.71
2019-02-12T13:45:16.196Z,70.72
2019-02-12T13:47:44.766Z,71.96
2019-02-12T13:50:13.706Z,71.38
2019-02-12T13:52:42.414Z,70.37
2019-02-12T13:55:17.497Z,70.71
2019-02-12T13:57:42.137Z,71.45
2019-02-12T14:00:18.716Z,70.94
2019-02-12T14:02:47.358Z,70.73
2019-02-12T14:05:21.006Z,70.03
2019-02-12T14:07:49.657Z,70.26
2019-02-12T14:10:18.363Z,71.07
2019-02-12T14:12:49.350Z,70.86
2019-02-12T14:15:18.005Z,70.31
2019-02-12T14:17:46.649Z,70.61
2019-02-12T14:20:17.290Z,70.32
2019-02-12T14:22:45.957Z,69.81
2019-02-12T14:25:15.199Z,69.79
2019-02-12T14:27:43.982Z,70.38
2019-02-12T14:30:17.735Z,70.92
2019-02-12T14:32:46.377Z,69.40
2019-02-12T14:35:15.039Z,69.82
2019-02-12T14:37:43.687Z,70.08
2019-02-12T14:40:14.515Z,70.62
2019-02-12T14:42:43.156Z,69.49
2019-02-12T14:45:18.100Z,69.82
2019-02-12T14:47:46.746Z,70.50
2019-02-12T14:50:16.910Z,70.26
2019-02-12T14:52:45.549Z,71.47
2019-02-12T14:55:14.123Z,70.93
2019-02-12T14:57:42.868Z,71.57
2019-02-12T15:00:18.476Z,70.88
2019-02-12T15:02:47.124Z,70.32
2019-02-12T15:05:15.762Z,71.14
2019-02-12T15:07:44.431Z,72.04
2019-02-12T15:10:16.087Z,71.27
2019-02-12T15:12:44.674Z,70.44
2019-02-12T15:15:13.279Z,70.40
2019-02-12T15:17:41.873Z,70.02
2019-02-12T15:20:12.564Z,69.78
2019-02-12T15:22:41.232Z,70.10
2019-02-12T15:25:10.695Z,70.36
2019-02-12T15:27:39.368Z,70.03
2019-02-12T15:30:11.307Z,70.70
2019-02-12T15:32:40.017Z,70.85
2019-02-12T15:35:09.878Z,71.08
2019-02-12T15:37:38.547Z,69.93
2019-02-12T15:40:18.530Z,70.16
2019-02-12T15:42:47.186Z,69.88
2019-02-12T15:45:23.048Z,70.04
2019-02-12T15:47:51.715Z,70.56
2019-02-12T15:50:20.385Z,70.51
2019-02-12T15:52:49.175Z,70.43
2019-02-12T15:55:17.772Z,70.75
2019-02-12T15:57:46.459Z,69.87
2019-02-12T16:00:20.537Z,71.94
2019-02-12T16:02:49.443Z,70.67
2019-02-12T16:05:18.296Z,70.99
2019-02-12T16:07:47.629Z,70.90
2019-02-12T16:10:19.727Z,70.60
2019-02-12T16:12:49.488Z,71.16
2019-02-12T16:15:23.300Z,70.88
2019-02-12T16:17:50.367Z,71.32
2019-02-12T16:20:19.061Z,71.44
2019-02-12T16:22:47.734Z,73.03
2019-02-12T16:25:16.385Z,72.29
2019-02-12T16:27:45.029Z,71.82
2019-02-12T16:30:18.700Z,71.53
2019-02-12T16:32:47.394Z,71.53
2019-02-12T16:35:16.953Z,72.29
2019-02-12T16:37:45.688Z,72.07
2019-02-12T16:40:17.814Z,71.32
2019-02-12T16:42:46.422Z,70.85
2019-02-12T16:45:29.975Z,71.58
2019-02-12T16:48:00.163Z,72.17
2019-02-12T16:50:28.983Z,71.09
2019-02-12T16:52:57.643Z,70.55
2019-02-12T16:55:26.358Z,71.74
2019-02-12T16:57:54.946Z,71.21
2019-02-12T17:00:23.600Z,71.59
2019-02-12T17:02:52.335Z,71.72
2019-02-12T17:05:20.983Z,72.04
2019-02-12T17:07:49.660Z,71.67
2019-02-12T17:10:18.320Z,71.44
2019-02-12T17:12:46.966Z,71.09
2019-02-12T17:15:15.628Z,71.88
2019-02-12T17:17:44.292Z,71.16
2019-02-12T17:20:24.173Z,72.00
2019-02-12T17:22:52.755Z,71.93
2019-02-12T17:25:21.441Z,72.35
2019-02-12T17:27:50.089Z,71.82
2019-02-12T17:30:18.946Z,71.90
2019-02-12T17:32:47.617Z,73.18
2019-02-12T17:35:16.249Z,72.30
2019-02-12T17:37:44.903Z,71.88
2019-02-12T17:40:17.329Z,71.45
2019-02-12T17:42:46.039Z,71.38
2019-02-12T17:45:18.296Z,71.80
2019-02-12T17:47:46.962Z,71.63
2019-02-12T17:50:15.896Z,71.25
2019-02-12T17:52:44.582Z,71.39
2019-02-12T17:55:13.253Z,71.22
2019-02-12T17:57:41.915Z,71.19
2019-02-12T18:00:18.039Z,71.78
2019-02-12T18:02:46.704Z,71.21
2019-02-12T18:05:15.375Z,71.18
2019-02-12T18:07:44.062Z,71.28
2019-02-12T18:10:12.821Z,71.20
